sensor_id;sensor_type;location;lat;lon;timestamp;P1;durP1;ratioP1;P2;durP2;ratioP2
75050;SDS011;63628;47.656;11.310;2023-05-29T00:01:34;5.28;;;3.00;;
75050;SDS011;63628;47.656;11.310;2023-05-29T00:04:02;3.28;;;2.38;;
75050;SDS011;63628;47.656;11.310;2023-05-29T00:06:29;4.78;;;2.40;;
75050;SDS011;63628;47.656;11.310;2023-05-29T00:08:57;3.33;;;2.45;;
75050;SDS011;63628;47.656;11.310;2023-05-29T00:11:24;3.55;;;2.20;;
75050;SDS011;63628;47.656;11.310;2023-05-29T00:13:51;2.40;;;2.20;;
75050;SDS011;63628;47.656;11.310;2023-05-29T00:16:18;2.85;;;2.35;;
75050;SDS011;63628;47.656;11.310;2023-05-29T00:18:45;3.10;;;2.72;;
75050;SDS011;63628;47.656;11.310;2023-05-29T00:21:12;3.72;;;2.85;;
75050;SDS011;63628;47.656;11.310;2023-05-29T00:23:40;3.03;;;2.50;;
75050;SDS011;63628;47.656;11.310;2023-05-29T00:26:08;3.50;;;2.55;;
75050;SDS011;63628;47.656;11.310;2023-05-29T00:28:35;3.83;;;2.60;;
75050;SDS011;63628;47.656;11.310;2023-05-29T00:31:02;3.75;;;2.67;;
75050;SDS011;63628;47.656;11.310;2023-05-29T00:33:29;4.07;;;2.70;;
75050;SDS011;63628;47.656;11.310;2023-05-29T00:35:56;3.42;;;2.70;;
75050;SDS011;63628;47.656;11.310;2023-05-29T00:38:23;3.85;;;2.55;;
75050;SDS011;63628;47.656;11.310;2023-05-29T00:40:50;4.00;;;2.80;;
75050;SDS011;63628;47.656;11.310;2023-05-29T00:43:18;3.95;;;2.67;;
75050;SDS011;63628;47.656;11.310;2023-05-29T00:45:44;3.55;;;2.70;;
75050;SDS011;63628;47.656;11.310;2023-05-29T00:48:11;3.50;;;2.58;;
75050;SDS011;63628;47.656;11.310;2023-05-29T00:50:38;3.17;;;2.30;;
75050;SDS011;63628;47.656;11.310;2023-05-29T00:53:06;3.00;;;2.63;;
75050;SDS011;63628;47.656;11.310;2023-05-29T00:55:34;3.60;;;2.63;;
75050;SDS011;63628;47.656;11.310;2023-05-29T00:58:01;3.88;;;2.53;;
75050;SDS011;63628;47.656;11.310;2023-05-29T01:00:30;3.00;;;2.70;;
75050;SDS011;63628;47.656;11.310;2023-05-29T01:02:57;2.83;;;2.08;;
75050;SDS011;63628;47.656;11.310;2023-05-29T01:05:24;4.78;;;2.13;;
75050;SDS011;63628;47.656;11.310;2023-05-29T01:07:51;4.07;;;2.70;;
75050;SDS011;63628;47.656;11.310;2023-05-29T01:10:18;3.33;;;2.08;;
75050;SDS011;63628;47.656;11.310;2023-05-29T01:12:47;4.30;;;2.53;;
75050;SDS011;63628;47.656;11.310;2023-05-29T01:15:21;3.95;;;2.53;;
75050;SDS011;63628;47.656;11.310;2023-05-29T01:18:10;2.85;;;2.22;;
75050;SDS011;63628;47.656;11.310;2023-05-29T01:20:47;3.05;;;2.67;;
75050;SDS011;63628;47.656;11.310;2023-05-29T01:23:23;4.00;;;2.58;;
75050;SDS011;63628;47.656;11.310;2023-05-29T01:26:07;3.33;;;2.78;;
75050;SDS011;63628;47.656;11.310;2023-05-29T01:28:40;3.00;;;2.58;;
75050;SDS011;63628;47.656;11.310;2023-05-29T01:31:11;4.03;;;2.92;;
75050;SDS011;63628;47.656;11.310;2023-05-29T01:36:07;3.15;;;2.30;;
75050;SDS011;63628;47.656;11.310;2023-05-29T01:38:34;3.72;;;2.70;;
75050;SDS011;63628;47.656;11.310;2023-05-29T01:41:01;4.18;;;2.50;;
75050;SDS011;63628;47.656;11.310;2023-05-29T01:43:29;3.33;;;2.67;;
75050;SDS011;63628;47.656;11.310;2023-05-29T01:45:58;3.55;;;2.63;;
75050;SDS011;63628;47.656;11.310;2023-05-29T01:48:26;4.63;;;2.83;;
75050;SDS011;63628;47.656;11.310;2023-05-29T01:50:54;4.00;;;2.75;;
75050;SDS011;63628;47.656;11.310;2023-05-29T01:53:21;2.85;;;2.53;;
75050;SDS011;63628;47.656;11.310;2023-05-29T01:55:49;2.80;;;2.35;;
75050;SDS011;63628;47.656;11.310;2023-05-29T01:58:16;4.32;;;2.58;;
75050;SDS011;63628;47.656;11.310;2023-05-29T02:00:46;3.22;;;2.55;;
75050;SDS011;63628;47.656;11.310;2023-05-29T02:03:15;4.35;;;2.75;;
75050;SDS011;63628;47.656;11.310;2023-05-29T02:05:42;3.65;;;2.40;;
75050;SDS011;63628;47.656;11.310;2023-05-29T02:08:08;4.00;;;2.60;;
75050;SDS011;63628;47.656;11.310;2023-05-29T02:10:35;4.30;;;3.00;;
75050;SDS011;63628;47.656;11.310;2023-05-29T02:13:02;3.42;;;2.25;;
75050;SDS011;63628;47.656;11.310;2023-05-29T02:15:28;5.70;;;2.35;;
75050;SDS011;63628;47.656;11.310;2023-05-29T02:17:55;4.68;;;2.33;;
75050;SDS011;63628;47.656;11.310;2023-05-29T02:20:25;3.20;;;2.05;;
75050;SDS011;63628;47.656;11.310;2023-05-29T02:22:51;4.28;;;2.78;;
75050;SDS011;63628;47.656;11.310;2023-05-29T02:25:18;3.30;;;2.30;;
75050;SDS011;63628;47.656;11.310;2023-05-29T02:27:45;3.55;;;2.85;;
75050;SDS011;63628;47.656;11.310;2023-05-29T02:30:12;3.97;;;2.92;;
75050;SDS011;63628;47.656;11.310;2023-05-29T02:32:38;3.28;;;2.40;;
75050;SDS011;63628;47.656;11.310;2023-05-29T02:35:06;3.38;;;2.47;;
75050;SDS011;63628;47.656;11.310;2023-05-29T02:37:34;4.13;;;2.67;;
75050;SDS011;63628;47.656;11.310;2023-05-29T02:40:01;3.53;;;2.47;;
75050;SDS011;63628;47.656;11.310;2023-05-29T02:42:28;3.72;;;2.80;;
75050;SDS011;63628;47.656;11.310;2023-05-29T02:44:55;4.15;;;2.53;;
75050;SDS011;63628;47.656;11.310;2023-05-29T02:47:21;2.95;;;2.42;;
75050;SDS011;63628;47.656;11.310;2023-05-29T02:49:48;2.85;;;2.28;;
75050;SDS011;63628;47.656;11.310;2023-05-29T02:52:15;3.67;;;2.60;;
75050;SDS011;63628;47.656;11.310;2023-05-29T02:54:43;4.85;;;2.58;;
75050;SDS011;63628;47.656;11.310;2023-05-29T02:57:10;2.75;;;2.28;;
75050;SDS011;63628;47.656;11.310;2023-05-29T02:59:37;3.35;;;2.42;;
75050;SDS011;63628;47.656;11.310;2023-05-29T03:02:04;3.20;;;2.45;;
75050;SDS011;63628;47.656;11.310;2023-05-29T03:04:31;3.97;;;2.38;;
75050;SDS011;63628;47.656;11.310;2023-05-29T03:06:57;4.05;;;2.25;;
75050;SDS011;63628;47.656;11.310;2023-05-29T03:09:24;2.38;;;2.17;;
75050;SDS011;63628;47.656;11.310;2023-05-29T03:11:53;3.20;;;2.22;;
75050;SDS011;63628;47.656;11.310;2023-05-29T03:14:20;3.00;;;2.42;;
75050;SDS011;63628;47.656;11.310;2023-05-29T03:16:48;3.08;;;2.38;;
75050;SDS011;63628;47.656;11.310;2023-05-29T03:19:15;3.35;;;2.45;;
75050;SDS011;63628;47.656;11.310;2023-05-29T03:21:42;3.85;;;2.72;;
75050;SDS011;63628;47.656;11.310;2023-05-29T03:24:09;3.55;;;2.47;;
75050;SDS011;63628;47.656;11.310;2023-05-29T03:26:36;4.10;;;2.58;;
75050;SDS011;63628;47.656;11.310;2023-05-29T03:29:04;5.82;;;2.58;;
75050;SDS011;63628;47.656;11.310;2023-05-29T03:31:31;3.05;;;2.38;;
75050;SDS011;63628;47.656;11.310;2023-05-29T03:33:58;3.05;;;2.33;;
75050;SDS011;63628;47.656;11.310;2023-05-29T03:36:25;3.17;;;2.47;;
75050;SDS011;63628;47.656;11.310;2023-05-29T03:38:53;3.35;;;2.50;;
75050;SDS011;63628;47.656;11.310;2023-05-29T03:41:19;3.65;;;2.67;;
75050;SDS011;63628;47.656;11.310;2023-05-29T03:43:46;4.13;;;2.75;;
75050;SDS011;63628;47.656;11.310;2023-05-29T03:46:14;3.78;;;2.85;;
75050;SDS011;63628;47.656;11.310;2023-05-29T03:48:41;7.30;;;2.95;;
75050;SDS011;63628;47.656;11.310;2023-05-29T03:51:07;4.80;;;2.50;;
75050;SDS011;63628;47.656;11.310;2023-05-29T03:53:34;2.92;;;2.15;;
75050;SDS011;63628;47.656;11.310;2023-05-29T03:56:01;4.53;;;3.00;;
75050;SDS011;63628;47.656;11.310;2023-05-29T03:58:28;5.40;;;2.72;;
75050;SDS011;63628;47.656;11.310;2023-05-29T04:00:54;3.65;;;2.83;;
75050;SDS011;63628;47.656;11.310;2023-05-29T04:03:23;4.43;;;2.90;;
75050;SDS011;63628;47.656;11.310;2023-05-29T04:05:49;4.85;;;2.80;;
75050;SDS011;63628;47.656;11.310;2023-05-29T04:08:16;2.97;;;2.40;;
75050;SDS011;63628;47.656;11.310;2023-05-29T04:10:43;5.95;;;2.53;;
75050;SDS011;63628;47.656;11.310;2023-05-29T04:13:10;3.80;;;2.80;;
75050;SDS011;63628;47.656;11.310;2023-05-29T04:15:37;5.65;;;2.38;;
75050;SDS011;63628;47.656;11.310;2023-05-29T04:18:04;6.10;;;3.22;;
75050;SDS011;63628;47.656;11.310;2023-05-29T04:20:32;4.50;;;3.10;;
75050;SDS011;63628;47.656;11.310;2023-05-29T04:22:59;3.00;;;2.50;;
75050;SDS011;63628;47.656;11.310;2023-05-29T04:25:25;3.53;;;2.75;;
75050;SDS011;63628;47.656;11.310;2023-05-29T04:27:52;3.33;;;2.60;;
75050;SDS011;63628;47.656;11.310;2023-05-29T04:30:19;5.82;;;3.40;;
75050;SDS011;63628;47.656;11.310;2023-05-29T04:32:46;4.00;;;2.90;;
75050;SDS011;63628;47.656;11.310;2023-05-29T04:35:13;2.90;;;2.53;;
75050;SDS011;63628;47.656;11.310;2023-05-29T04:37:41;5.28;;;3.08;;
75050;SDS011;63628;47.656;11.310;2023-05-29T04:40:10;3.60;;;2.60;;
75050;SDS011;63628;47.656;11.310;2023-05-29T04:42:40;5.13;;;3.42;;
75050;SDS011;63628;47.656;11.310;2023-05-29T04:45:07;4.95;;;3.10;;
75050;SDS011;63628;47.656;11.310;2023-05-29T04:50:10;5.55;;;3.30;;
75050;SDS011;63628;47.656;11.310;2023-05-29T04:52:37;7.43;;;3.30;;
75050;SDS011;63628;47.656;11.310;2023-05-29T04:55:05;4.72;;;3.20;;
75050;SDS011;63628;47.656;11.310;2023-05-29T04:57:32;9.35;;;3.53;;
75050;SDS011;63628;47.656;11.310;2023-05-29T04:59:59;5.82;;;3.45;;
75050;SDS011;63628;47.656;11.310;2023-05-29T05:02:26;7.05;;;3.97;;
75050;SDS011;63628;47.656;11.310;2023-05-29T05:04:52;3.40;;;2.53;;
75050;SDS011;63628;47.656;11.310;2023-05-29T05:07:19;3.10;;;2.60;;
75050;SDS011;63628;47.656;11.310;2023-05-29T05:09:46;5.30;;;3.63;;
75050;SDS011;63628;47.656;11.310;2023-05-29T05:12:14;7.20;;;3.33;;
75050;SDS011;63628;47.656;11.310;2023-05-29T05:14:40;7.88;;;4.05;;
75050;SDS011;63628;47.656;11.310;2023-05-29T05:17:07;6.78;;;4.05;;
75050;SDS011;63628;47.656;11.310;2023-05-29T05:19:34;7.75;;;3.90;;
75050;SDS011;63628;47.656;11.310;2023-05-29T05:22:00;5.60;;;3.30;;
75050;SDS011;63628;47.656;11.310;2023-05-29T05:24:27;5.18;;;3.40;;
75050;SDS011;63628;47.656;11.310;2023-05-29T05:26:54;7.55;;;3.78;;
75050;SDS011;63628;47.656;11.310;2023-05-29T05:29:22;10.13;;;4.13;;
75050;SDS011;63628;47.656;11.310;2023-05-29T05:31:51;7.40;;;4.65;;
75050;SDS011;63628;47.656;11.310;2023-05-29T05:34:17;8.77;;;5.00;;
75050;SDS011;63628;47.656;11.310;2023-05-29T05:36:44;6.63;;;4.95;;
75050;SDS011;63628;47.656;11.310;2023-05-29T05:39:11;6.00;;;4.65;;
75050;SDS011;63628;47.656;11.310;2023-05-29T05:41:38;7.70;;;4.53;;
75050;SDS011;63628;47.656;11.310;2023-05-29T05:44:04;10.82;;;5.30;;
75050;SDS011;63628;47.656;11.310;2023-05-29T05:46:33;6.38;;;4.15;;
75050;SDS011;63628;47.656;11.310;2023-05-29T05:49:00;7.43;;;4.75;;
75050;SDS011;63628;47.656;11.310;2023-05-29T05:51:27;9.02;;;5.20;;
75050;SDS011;63628;47.656;11.310;2023-05-29T05:53:53;9.52;;;4.88;;
75050;SDS011;63628;47.656;11.310;2023-05-29T05:56:20;5.78;;;4.50;;
75050;SDS011;63628;47.656;11.310;2023-05-29T05:58:47;7.65;;;5.03;;
75050;SDS011;63628;47.656;11.310;2023-05-29T06:01:16;7.13;;;5.00;;
75050;SDS011;63628;47.656;11.310;2023-05-29T06:03:44;6.70;;;4.78;;
75050;SDS011;63628;47.656;11.310;2023-05-29T06:06:11;6.70;;;4.80;;
75050;SDS011;63628;47.656;11.310;2023-05-29T06:08:38;10.10;;;4.72;;
75050;SDS011;63628;47.656;11.310;2023-05-29T06:11:06;9.98;;;4.75;;
75050;SDS011;63628;47.656;11.310;2023-05-29T06:13:33;3.95;;;3.15;;
75050;SDS011;63628;47.656;11.310;2023-05-29T06:16:00;9.15;;;5.00;;
75050;SDS011;63628;47.656;11.310;2023-05-29T06:18:27;7.97;;;4.65;;
75050;SDS011;63628;47.656;11.310;2023-05-29T06:20:55;7.82;;;5.45;;
75050;SDS011;63628;47.656;11.310;2023-05-29T06:23:22;7.63;;;4.95;;
75050;SDS011;63628;47.656;11.310;2023-05-29T06:25:49;10.60;;;5.03;;
75050;SDS011;63628;47.656;11.310;2023-05-29T06:28:15;7.53;;;4.70;;
75050;SDS011;63628;47.656;11.310;2023-05-29T06:30:42;8.50;;;4.90;;
75050;SDS011;63628;47.656;11.310;2023-05-29T06:33:17;7.10;;;4.55;;
75050;SDS011;63628;47.656;11.310;2023-05-29T06:35:43;9.20;;;4.97;;
75050;SDS011;63628;47.656;11.310;2023-05-29T06:38:11;6.70;;;4.35;;
75050;SDS011;63628;47.656;11.310;2023-05-29T06:40:39;8.00;;;5.05;;
75050;SDS011;63628;47.656;11.310;2023-05-29T06:43:06;10.50;;;5.28;;
75050;SDS011;63628;47.656;11.310;2023-05-29T06:45:33;7.72;;;4.70;;
75050;SDS011;63628;47.656;11.310;2023-05-29T06:47:59;8.13;;;4.18;;
75050;SDS011;63628;47.656;11.310;2023-05-29T06:50:26;9.20;;;5.20;;
75050;SDS011;63628;47.656;11.310;2023-05-29T06:52:53;8.77;;;4.88;;
75050;SDS011;63628;47.656;11.310;2023-05-29T06:55:21;4.35;;;2.85;;
75050;SDS011;63628;47.656;11.310;2023-05-29T06:57:48;9.23;;;4.88;;
75050;SDS011;63628;47.656;11.310;2023-05-29T07:00:15;11.23;;;4.85;;
75050;SDS011;63628;47.656;11.310;2023-05-29T07:02:42;8.73;;;4.60;;
75050;SDS011;63628;47.656;11.310;2023-05-29T07:05:09;6.93;;;4.47;;
75050;SDS011;63628;47.656;11.310;2023-05-29T07:07:35;8.82;;;4.45;;
75050;SDS011;63628;47.656;11.310;2023-05-29T07:10:02;8.25;;;4.40;;
75050;SDS011;63628;47.656;11.310;2023-05-29T07:12:31;8.73;;;4.32;;
75050;SDS011;63628;47.656;11.310;2023-05-29T07:14:57;9.50;;;4.65;;
75050;SDS011;63628;47.656;11.310;2023-05-29T07:17:24;11.63;;;4.90;;
75050;SDS011;63628;47.656;11.310;2023-05-29T07:19:51;8.73;;;4.28;;
75050;SDS011;63628;47.656;11.310;2023-05-29T07:22:18;7.22;;;4.60;;
75050;SDS011;63628;47.656;11.310;2023-05-29T07:24:45;6.75;;;4.60;;
75050;SDS011;63628;47.656;11.310;2023-05-29T07:27:11;7.28;;;4.35;;
75050;SDS011;63628;47.656;11.310;2023-05-29T07:29:39;9.93;;;5.00;;
75050;SDS011;63628;47.656;11.310;2023-05-29T07:32:06;4.78;;;3.13;;
75050;SDS011;63628;47.656;11.310;2023-05-29T07:34:33;4.93;;;3.60;;
75050;SDS011;63628;47.656;11.310;2023-05-29T07:37:00;9.25;;;5.10;;
75050;SDS011;63628;47.656;11.310;2023-05-29T07:39:29;11.07;;;4.40;;
75050;SDS011;63628;47.656;11.310;2023-05-29T07:41:56;8.82;;;3.92;;
75050;SDS011;63628;47.656;11.310;2023-05-29T07:44:23;7.05;;;3.80;;
75050;SDS011;63628;47.656;11.310;2023-05-29T07:46:51;7.15;;;4.82;;
75050;SDS011;63628;47.656;11.310;2023-05-29T07:49:19;9.82;;;4.68;;
75050;SDS011;63628;47.656;11.310;2023-05-29T07:51:46;6.95;;;4.07;;
75050;SDS011;63628;47.656;11.310;2023-05-29T07:54:12;10.00;;;4.47;;
75050;SDS011;63628;47.656;11.310;2023-05-29T07:56:39;8.32;;;4.28;;
75050;SDS011;63628;47.656;11.310;2023-05-29T07:59:07;8.38;;;4.50;;
75050;SDS011;63628;47.656;11.310;2023-05-29T08:01:35;6.70;;;4.57;;
75050;SDS011;63628;47.656;11.310;2023-05-29T08:04:03;8.52;;;4.80;;
75050;SDS011;63628;47.656;11.310;2023-05-29T08:06:30;7.55;;;4.40;;
75050;SDS011;63628;47.656;11.310;2023-05-29T08:08:58;9.70;;;4.43;;
75050;SDS011;63628;47.656;11.310;2023-05-29T08:11:25;9.13;;;4.45;;
75050;SDS011;63628;47.656;11.310;2023-05-29T08:13:52;7.57;;;4.32;;
75050;SDS011;63628;47.656;11.310;2023-05-29T08:16:19;7.72;;;4.63;;
75050;SDS011;63628;47.656;11.310;2023-05-29T08:18:46;7.40;;;3.53;;
75050;SDS011;63628;47.656;11.310;2023-05-29T08:21:15;7.38;;;4.47;;
75050;SDS011;63628;47.656;11.310;2023-05-29T08:23:42;9.40;;;4.40;;
75050;SDS011;63628;47.656;11.310;2023-05-29T08:26:08;7.10;;;4.22;;
75050;SDS011;63628;47.656;11.310;2023-05-29T08:28:35;6.80;;;4.15;;
75050;SDS011;63628;47.656;11.310;2023-05-29T08:31:02;6.47;;;4.20;;
75050;SDS011;63628;47.656;11.310;2023-05-29T08:33:28;7.03;;;4.43;;
75050;SDS011;63628;47.656;11.310;2023-05-29T08:35:56;8.77;;;4.97;;
75050;SDS011;63628;47.656;11.310;2023-05-29T08:38:26;8.15;;;4.35;;
75050;SDS011;63628;47.656;11.310;2023-05-29T08:40:52;5.85;;;4.00;;
75050;SDS011;63628;47.656;11.310;2023-05-29T08:43:21;9.82;;;4.40;;
75050;SDS011;63628;47.656;11.310;2023-05-29T08:45:51;8.07;;;4.47;;
75050;SDS011;63628;47.656;11.310;2023-05-29T08:48:19;8.43;;;3.90;;
75050;SDS011;63628;47.656;11.310;2023-05-29T08:50:49;6.60;;;4.22;;
75050;SDS011;63628;47.656;11.310;2023-05-29T08:53:19;8.07;;;3.72;;
75050;SDS011;63628;47.656;11.310;2023-05-29T08:55:47;6.20;;;4.55;;
75050;SDS011;63628;47.656;11.310;2023-05-29T08:58:18;6.60;;;4.50;;
75050;SDS011;63628;47.656;11.310;2023-05-29T09:00:47;7.55;;;4.00;;
75050;SDS011;63628;47.656;11.310;2023-05-29T09:03:14;5.43;;;3.97;;
75050;SDS011;63628;47.656;11.310;2023-05-29T09:05:41;6.25;;;3.92;;
75050;SDS011;63628;47.656;11.310;2023-05-29T09:08:08;6.22;;;4.57;;
75050;SDS011;63628;47.656;11.310;2023-05-29T09:10:38;7.68;;;4.50;;
75050;SDS011;63628;47.656;11.310;2023-05-29T09:13:07;5.72;;;3.90;;
75050;SDS011;63628;47.656;11.310;2023-05-29T09:15:36;5.65;;;3.85;;
75050;SDS011;63628;47.656;11.310;2023-05-29T09:18:06;10.00;;;4.30;;
75050;SDS011;63628;47.656;11.310;2023-05-29T09:20:35;7.05;;;4.10;;
75050;SDS011;63628;47.656;11.310;2023-05-29T09:23:03;5.85;;;3.67;;
75050;SDS011;63628;47.656;11.310;2023-05-29T09:25:31;7.30;;;3.93;;
75050;SDS011;63628;47.656;11.310;2023-05-29T09:27:59;5.80;;;4.20;;
75050;SDS011;63628;47.656;11.310;2023-05-29T09:30:37;8.63;;;3.83;;
75050;SDS011;63628;47.656;11.310;2023-05-29T09:33:05;6.45;;;3.92;;
75050;SDS011;63628;47.656;11.310;2023-05-29T09:35:35;5.93;;;3.85;;
75050;SDS011;63628;47.656;11.310;2023-05-29T09:38:03;10.23;;;4.50;;
75050;SDS011;63628;47.656;11.310;2023-05-29T09:40:30;6.68;;;4.30;;
75050;SDS011;63628;47.656;11.310;2023-05-29T09:43:05;9.00;;;4.88;;
75050;SDS011;63628;47.656;11.310;2023-05-29T09:45:39;5.45;;;3.75;;
75050;SDS011;63628;47.656;11.310;2023-05-29T09:48:08;7.28;;;3.72;;
75050;SDS011;63628;47.656;11.310;2023-05-29T09:50:39;6.53;;;3.92;;
75050;SDS011;63628;47.656;11.310;2023-05-29T09:53:07;9.23;;;4.03;;
75050;SDS011;63628;47.656;11.310;2023-05-29T09:55:44;6.75;;;3.88;;
75050;SDS011;63628;47.656;11.310;2023-05-29T09:58:13;5.75;;;3.47;;
75050;SDS011;63628;47.656;11.310;2023-05-29T10:00:41;9.48;;;4.22;;
75050;SDS011;63628;47.656;11.310;2023-05-29T10:03:09;6.70;;;3.90;;
75050;SDS011;63628;47.656;11.310;2023-05-29T10:05:37;6.63;;;3.90;;
75050;SDS011;63628;47.656;11.310;2023-05-29T10:08:03;8.27;;;4.20;;
75050;SDS011;63628;47.656;11.310;2023-05-29T10:10:34;8.52;;;4.15;;
75050;SDS011;63628;47.656;11.310;2023-05-29T10:13:03;5.88;;;3.83;;
75050;SDS011;63628;47.656;11.310;2023-05-29T10:15:37;6.82;;;4.45;;
75050;SDS011;63628;47.656;11.310;2023-05-29T10:18:10;5.95;;;3.97;;
75050;SDS011;63628;47.656;11.310;2023-05-29T10:20:39;5.25;;;4.03;;
75050;SDS011;63628;47.656;11.310;2023-05-29T10:23:10;6.80;;;4.05;;
75050;SDS011;63628;47.656;11.310;2023-05-29T10:25:39;4.95;;;3.72;;
75050;SDS011;63628;47.656;11.310;2023-05-29T10:28:11;6.70;;;4.10;;
75050;SDS011;63628;47.656;11.310;2023-05-29T10:30:39;7.45;;;4.32;;
75050;SDS011;63628;47.656;11.310;2023-05-29T10:33:17;4.72;;;3.85;;
75050;SDS011;63628;47.656;11.310;2023-05-29T10:35:55;6.80;;;3.92;;
75050;SDS011;63628;47.656;11.310;2023-05-29T10:38:27;8.50;;;4.03;;
75050;SDS011;63628;47.656;11.310;2023-05-29T10:40:54;6.03;;;4.20;;
75050;SDS011;63628;47.656;11.310;2023-05-29T10:43:29;6.40;;;3.67;;
75050;SDS011;63628;47.656;11.310;2023-05-29T10:46:00;7.20;;;4.13;;
75050;SDS011;63628;47.656;11.310;2023-05-29T10:51:24;6.22;;;3.55;;
75050;SDS011;63628;47.656;11.310;2023-05-29T10:53:54;4.60;;;3.75;;
75050;SDS011;63628;47.656;11.310;2023-05-29T10:56:22;9.57;;;4.28;;
75050;SDS011;63628;47.656;11.310;2023-05-29T10:58:52;8.30;;;4.00;;
75050;SDS011;63628;47.656;11.310;2023-05-29T11:01:21;7.70;;;4.13;;
75050;SDS011;63628;47.656;11.310;2023-05-29T11:03:49;8.55;;;4.15;;
75050;SDS011;63628;47.656;11.310;2023-05-29T11:06:20;7.05;;;3.92;;
75050;SDS011;63628;47.656;11.310;2023-05-29T11:08:53;5.22;;;3.85;;
75050;SDS011;63628;47.656;11.310;2023-05-29T11:11:28;5.53;;;3.90;;
75050;SDS011;63628;47.656;11.310;2023-05-29T11:13:57;6.18;;;3.85;;
75050;SDS011;63628;47.656;11.310;2023-05-29T11:16:37;5.07;;;3.22;;
75050;SDS011;63628;47.656;11.310;2023-05-29T11:19:04;4.78;;;3.40;;
75050;SDS011;63628;47.656;11.310;2023-05-29T11:21:34;7.15;;;4.25;;
75050;SDS011;63628;47.656;11.310;2023-05-29T11:24:13;6.00;;;3.92;;
75050;SDS011;63628;47.656;11.310;2023-05-29T11:26:45;6.32;;;4.00;;
75050;SDS011;63628;47.656;11.310;2023-05-29T11:29:12;5.60;;;3.70;;
75050;SDS011;63628;47.656;11.310;2023-05-29T11:31:39;5.60;;;3.55;;
75050;SDS011;63628;47.656;11.310;2023-05-29T11:34:09;6.90;;;3.90;;
75050;SDS011;63628;47.656;11.310;2023-05-29T11:36:41;7.60;;;4.20;;
75050;SDS011;63628;47.656;11.310;2023-05-29T11:39:09;4.88;;;3.88;;
75050;SDS011;63628;47.656;11.310;2023-05-29T11:41:36;6.10;;;3.63;;
75050;SDS011;63628;47.656;11.310;2023-05-29T11:44:04;7.00;;;3.88;;
75050;SDS011;63628;47.656;11.310;2023-05-29T11:46:32;4.95;;;3.47;;
75050;SDS011;63628;47.656;11.310;2023-05-29T11:49:00;4.97;;;3.60;;
75050;SDS011;63628;47.656;11.310;2023-05-29T11:51:27;7.63;;;3.50;;
75050;SDS011;63628;47.656;11.310;2023-05-29T11:53:56;5.85;;;3.50;;
75050;SDS011;63628;47.656;11.310;2023-05-29T11:56:25;6.03;;;3.63;;
75050;SDS011;63628;47.656;11.310;2023-05-29T11:58:53;5.03;;;3.58;;
75050;SDS011;63628;47.656;11.310;2023-05-29T12:01:23;6.05;;;3.53;;
75050;SDS011;63628;47.656;11.310;2023-05-29T12:03:51;7.97;;;3.97;;
75050;SDS011;63628;47.656;11.310;2023-05-29T12:06:30;7.60;;;3.42;;
75050;SDS011;63628;47.656;11.310;2023-05-29T12:08:59;6.28;;;3.45;;
75050;SDS011;63628;47.656;11.310;2023-05-29T12:11:27;6.22;;;3.55;;
75050;SDS011;63628;47.656;11.310;2023-05-29T12:13:56;7.72;;;3.60;;
75050;SDS011;63628;47.656;11.310;2023-05-29T12:16:24;7.88;;;3.53;;
75050;SDS011;63628;47.656;11.310;2023-05-29T12:18:52;5.72;;;3.97;;
75050;SDS011;63628;47.656;11.310;2023-05-29T12:21:19;6.25;;;3.25;;
75050;SDS011;63628;47.656;11.310;2023-05-29T12:23:47;6.75;;;3.65;;
75050;SDS011;63628;47.656;11.310;2023-05-29T12:26:16;5.45;;;3.60;;
75050;SDS011;63628;47.656;11.310;2023-05-29T12:28:43;4.93;;;3.47;;
75050;SDS011;63628;47.656;11.310;2023-05-29T12:31:11;5.38;;;3.78;;
75050;SDS011;63628;47.656;11.310;2023-05-29T12:33:40;9.10;;;3.63;;
75050;SDS011;63628;47.656;11.310;2023-05-29T12:36:09;6.53;;;4.40;;
75050;SDS011;63628;47.656;11.310;2023-05-29T12:38:45;8.52;;;3.72;;
75050;SDS011;63628;47.656;11.310;2023-05-29T12:41:28;6.03;;;3.92;;
75050;SDS011;63628;47.656;11.310;2023-05-29T12:43:56;5.15;;;3.88;;
75050;SDS011;63628;47.656;11.310;2023-05-29T12:46:24;5.68;;;4.00;;
75050;SDS011;63628;47.656;11.310;2023-05-29T12:48:52;5.10;;;3.95;;
75050;SDS011;63628;47.656;11.310;2023-05-29T12:51:23;5.82;;;3.53;;
75050;SDS011;63628;47.656;11.310;2023-05-29T12:53:50;6.65;;;3.80;;
75050;SDS011;63628;47.656;11.310;2023-05-29T12:56:17;6.78;;;4.25;;
75050;SDS011;63628;47.656;11.310;2023-05-29T12:58:44;7.03;;;4.20;;
75050;SDS011;63628;47.656;11.310;2023-05-29T13:01:12;6.05;;;4.03;;
75050;SDS011;63628;47.656;11.310;2023-05-29T13:03:40;9.63;;;4.82;;
75050;SDS011;63628;47.656;11.310;2023-05-29T13:06:07;5.90;;;3.72;;
75050;SDS011;63628;47.656;11.310;2023-05-29T13:08:34;5.63;;;4.40;;
75050;SDS011;63628;47.656;11.310;2023-05-29T13:11:01;7.35;;;4.40;;
75050;SDS011;63628;47.656;11.310;2023-05-29T13:13:27;6.13;;;4.20;;
75050;SDS011;63628;47.656;11.310;2023-05-29T13:15:55;8.60;;;4.65;;
75050;SDS011;63628;47.656;11.310;2023-05-29T13:18:23;5.72;;;4.07;;
75050;SDS011;63628;47.656;11.310;2023-05-29T13:20:49;7.32;;;4.65;;
75050;SDS011;63628;47.656;11.310;2023-05-29T13:23:16;6.10;;;4.25;;
75050;SDS011;63628;47.656;11.310;2023-05-29T13:25:43;6.30;;;3.90;;
75050;SDS011;63628;47.656;11.310;2023-05-29T13:28:09;5.90;;;4.30;;
75050;SDS011;63628;47.656;11.310;2023-05-29T13:30:36;6.53;;;4.13;;
75050;SDS011;63628;47.656;11.310;2023-05-29T13:33:04;7.22;;;4.28;;
75050;SDS011;63628;47.656;11.310;2023-05-29T13:35:31;8.50;;;3.92;;
75050;SDS011;63628;47.656;11.310;2023-05-29T13:37:58;8.80;;;4.43;;
75050;SDS011;63628;47.656;11.310;2023-05-29T13:40:24;4.95;;;3.88;;
75050;SDS011;63628;47.656;11.310;2023-05-29T13:42:52;6.15;;;4.20;;
75050;SDS011;63628;47.656;11.310;2023-05-29T13:45:18;7.88;;;4.50;;
75050;SDS011;63628;47.656;11.310;2023-05-29T13:47:45;6.70;;;4.28;;
75050;SDS011;63628;47.656;11.310;2023-05-29T13:50:13;5.80;;;4.00;;
75050;SDS011;63628;47.656;11.310;2023-05-29T13:52:40;6.28;;;4.15;;
75050;SDS011;63628;47.656;11.310;2023-05-29T13:55:07;8.25;;;4.75;;
75050;SDS011;63628;47.656;11.310;2023-05-29T13:57:35;8.82;;;3.92;;
75050;SDS011;63628;47.656;11.310;2023-05-29T14:00:06;7.28;;;4.60;;
75050;SDS011;63628;47.656;11.310;2023-05-29T14:02:34;8.07;;;4.05;;
75050;SDS011;63628;47.656;11.310;2023-05-29T14:05:01;5.80;;;4.30;;
75050;SDS011;63628;47.656;11.310;2023-05-29T14:07:33;4.93;;;4.13;;
75050;SDS011;63628;47.656;11.310;2023-05-29T14:10:00;5.68;;;3.88;;
75050;SDS011;63628;47.656;11.310;2023-05-29T14:12:27;6.35;;;4.55;;
75050;SDS011;63628;47.656;11.310;2023-05-29T14:14:53;7.05;;;3.90;;
75050;SDS011;63628;47.656;11.310;2023-05-29T14:17:20;5.03;;;3.60;;
75050;SDS011;63628;47.656;11.310;2023-05-29T14:19:47;6.88;;;4.35;;
75050;SDS011;63628;47.656;11.310;2023-05-29T14:22:14;7.57;;;4.35;;
75050;SDS011;63628;47.656;11.310;2023-05-29T14:24:42;6.68;;;4.15;;
75050;SDS011;63628;47.656;11.310;2023-05-29T14:27:08;7.32;;;4.25;;
75050;SDS011;63628;47.656;11.310;2023-05-29T14:29:35;9.10;;;4.45;;
75050;SDS011;63628;47.656;11.310;2023-05-29T14:32:02;6.70;;;4.05;;
75050;SDS011;63628;47.656;11.310;2023-05-29T14:34:29;6.78;;;4.05;;
75050;SDS011;63628;47.656;11.310;2023-05-29T14:36:56;7.03;;;4.20;;
75050;SDS011;63628;47.656;11.310;2023-05-29T14:39:22;5.82;;;4.05;;
75050;SDS011;63628;47.656;11.310;2023-05-29T14:41:50;11.40;;;4.28;;
75050;SDS011;63628;47.656;11.310;2023-05-29T14:44:17;6.88;;;3.60;;
75050;SDS011;63628;47.656;11.310;2023-05-29T14:46:44;6.85;;;3.70;;